Time;durP1;ratioP1;P1;durP2;ratioP2;P2;SDS_P1;SDS_P2;PMS_P1;PMS_P2;Temp;Humidity;BMP_temperature;BMP_pressure;BME280_temperature;BME280_humidity;BME280_pressure;Samples;Min_cycle;Max_cycle;Signal;HPM_P1;HPM_P2
2022/02/11 00:08:43;;;;;;;8.02;3.53;;;9.90;94.20;;;;;;5060444;28;20120;-53
2022/02/11 00:11:09;;;;;;;7.70;3.35;;;9.90;94.20;;;;;;5053860;28;20187;-52
2022/02/11 00:13:35;;;;;;;6.32;3.20;;;9.90;94.20;;;;;;5055330;28;20476;-53
2022/02/11 00:16:00;;;;;;;6.80;2.80;;;9.90;94.20;;;;;;5056943;28;20392;-53
2022/02/11 00:18:26;;;;;;;6.32;3.00;;;9.90;94.20;;;;;;5062632;28;20357;-53
2022/02/11 00:20:52;;;;;;;8.25;3.33;;;9.90;94.20;;;;;;5062802;28;20029;-53
2022/02/11 00:23:19;;;;;;;8.77;2.55;;;9.90;94.20;;;;;;5064135;28;20025;-53
2022/02/11 00:25:54;;;;;;;6.60;2.70;;;9.90;94.20;;;;;;5060306;28;20027;-53
2022/02/11 00:33:39;;;;;;;7.03;2.85;;;9.90;94.20;;;;;;5062301;28;20581;-53
2022/02/11 00:36:08;;;;;;;6.38;3.03;;;9.90;94.30;;;;;;5061430;28;20381;-52
2022/02/11 00:47:24;;;;;;;5.18;2.42;;;9.90;94.30;;;;;;5058095;28;20039;-53
2022/02/11 01:02:54;;;;;;;10.65;3.63;;;9.90;94.40;;;;;;5059869;28;20116;-53
2022/02/11 01:05:20;;;;;;;7.82;3.10;;;9.80;94.40;;;;;;5061345;28;20377;-53
2022/02/11 01:07:45;;;;;;;8.07;3.45;;;9.80;94.40;;;;;;5059367;28;20108;-53
2022/02/11 01:10:11;;;;;;;7.88;3.67;;;9.80;94.40;;;;;;5064311;28;20507;-53
2022/02/11 01:12:39;;;;;;;7.97;2.63;;;9.80;94.30;;;;;;5054160;28;20055;-53
2022/02/11 01:15:06;;;;;;;11.60;3.47;;;9.90;94.60;;;;;;5064349;28;20353;-53
2022/02/11 01:17:40;;;;;;;4.35;2.63;;;9.80;94.40;;;;;;5059537;28;20037;-53
2022/02/11 01:28:09;;;;;;;8.07;3.17;;;9.80;94.60;;;;;;5057503;28;20051;-53
2022/02/11 01:54:37;;;;;;;4.10;2.55;;;9.80;94.80;;;;;;5061937;28;20435;-53
2022/02/11 01:56:44;;;;;;;9.90;3.88;;;9.80;94.70;;;;;;5066877;28;20040;-52
2022/02/11 02:26:13;;;;;;;7.20;3.03;;;9.80;94.90;;;;;;5059391;28;20024;-53
2022/02/11 02:35:33;;;;;;;4.45;2.78;;;9.90;94.90;;;;;;5061151;28;20099;-53
2022/02/11 02:59:00;;;;;;;6.38;2.90;;;9.90;95.10;;;;;;5057254;28;20032;-53
2022/02/11 03:01:44;;;;;;;5.28;2.90;;;9.90;95.10;;;;;;5060192;28;20078;-53
2022/02/11 03:53:40;;;;;;;11.25;4.28;;;9.90;95.30;;;;;;5059077;28;20033;-53
2022/02/11 04:55:22;;;;;;;4.63;1.90;;;9.80;95.60;;;;;;5066278;28;20033;-53
2022/02/11 05:00:32;;;;;;;3.80;1.35;;;9.80;95.60;;;;;;5056984;28;20055;-53
2022/02/11 05:02:58;;;;;;;3.10;1.67;;;9.80;95.70;;;;;;5063260;28;20473;-53
2022/02/11 05:05:24;;;;;;;1.35;1.17;;;9.80;95.70;;;;;;5060684;28;20478;-53
2022/02/11 05:07:50;;;;;;;2.03;1.10;;;9.80;95.60;;;;;;5057856;28;20386;-53
2022/02/11 05:10:16;;;;;;;4.50;1.30;;;9.80;95.70;;;;;;5057643;28;20117;-53
2022/02/11 05:12:43;;;;;;;1.52;1.40;;;9.80;95.70;;;;;;5063719;28;20016;-53
2022/02/11 05:15:10;;;;;;;3.85;1.80;;;9.80;95.60;;;;;;5055983;28;20053;-53
2022/02/11 05:17:40;;;;;;;2.78;1.50;;;9.80;95.70;;;;;;5060386;28;20021;-53
2022/02/11 05:20:07;;;;;;;;;;;9.80;95.70;;;;;;5065106;28;20271;-53
2022/02/11 05:22:33;;;;;;;3.05;1.58;;;9.80;95.60;;;;;;5062304;28;19905;-53
2022/02/11 05:24:59;;;;;;;5.68;1.20;;;9.80;95.60;;;;;;5061798;28;20022;-53
2022/02/11 05:27:25;;;;;;;1.85;1.10;;;9.80;95.70;;;;;;5059323;28;20028;-53
2022/02/11 05:29:51;;;;;;;1.13;1.00;;;9.70;95.60;;;;;;5057941;28;20060;-52
2022/02/11 05:32:16;;;;;;;1.90;1.05;;;9.70;95.70;;;;;;5062680;28;20564;-53
2022/02/11 05:34:42;;;;;;;0.88;0.88;;;9.70;95.70;;;;;;5062656;28;20021;-53
2022/02/11 05:37:08;;;;;;;0.60;0.60;;;9.80;95.60;;;;;;5059784;28;20485;-53
2022/02/11 05:39:33;;;;;;;0.80;0.80;;;9.70;95.70;;;;;;5065453;28;20025;-53
2022/02/11 05:41:59;;;;;;;1.05;0.77;;;9.70;95.70;;;;;;5061842;28;20024;-52
2022/02/11 05:44:24;;;;;;;0.52;0.52;;;9.70;95.60;;;;;;5059381;28;20068;-53
2022/02/11 05:46:51;;;;;;;0.60;0.60;;;9.70;95.70;;;;;;5060425;28;20031;-53
2022/02/11 05:49:17;;;;;;;0.55;0.52;;;9.70;95.60;;;;;;5059946;28;20305;-53
2022/02/11 05:51:43;;;;;;;0.50;0.50;;;9.70;95.60;;;;;;5063313;28;20466;-53
2022/02/11 05:54:09;;;;;;;0.50;0.50;;;9.70;95.60;;;;;;5061930;28;20354;-54
2022/02/11 05:56:35;;;;;;;0.60;0.60;;;9.70;95.60;;;;;;5061230;28;20116;-53
2022/02/11 05:59:00;;;;;;;0.75;0.70;;;9.70;95.60;;;;;;5059996;28;20033;-53
2022/02/11 06:01:26;;;;;;;0.40;0.40;;;9.70;95.70;;;;;;5057935;28;20035;-53
2022/02/11 06:03:52;;;;;;;0.60;0.60;;;9.70;95.70;;;;;;5060587;28;20450;-53
2022/02/11 06:06:17;;;;;;;0.50;0.50;;;9.70;95.50;;;;;;5058469;28;20414;-53
2022/02/11 06:08:43;;;;;;;0.40;0.40;;;9.70;95.60;;;;;;5061306;28;20013;-53
2022/02/11 06:11:09;;;;;;;0.50;0.50;;;9.70;95.60;;;;;;5060379;28;20044;-53
2022/02/11 06:13:35;;;;;;;0.40;0.40;;;9.70;95.70;;;;;;5061685;28;20070;-53
2022/02/11 06:16:01;;;;;;;0.40;0.40;;;9.70;95.60;;;;;;5056239;28;20047;-53
2022/02/11 06:18:27;;;;;;;0.40;0.40;;;9.70;95.50;;;;;;5060166;28;20070;-53
2022/02/11 06:20:52;;;;;;;0.75;0.75;;;9.70;95.50;;;;;;5056867;28;20036;-53
2022/02/11 06:23:18;;;;;;;0.50;0.50;;;9.70;95.50;;;;;;5055922;28;20033;-53
2022/02/11 06:25:44;;;;;;;0.40;0.40;;;9.70;95.50;;;;;;5062700;28;20027;-53
2022/02/11 06:28:11;;;;;;;0.50;0.50;;;9.70;95.50;;;;;;5062350;28;20365;-53
2022/02/11 06:30:37;;;;;;;0.57;0.57;;;9.70;95.50;;;;;;5057761;28;20244;-53
2022/02/11 06:33:03;;;;;;;1.25;0.50;;;9.70;95.50;;;;;;5060853;28;20112;-53
2022/02/11 06:35:34;;;;;;;0.50;0.50;;;9.70;95.50;;;;;;5060299;28;20174;-53
2022/02/11 06:38:00;;;;;;;0.40;0.40;;;9.70;95.50;;;;;;5061736;28;20403;-57
2022/02/11 06:40:29;;;;;;;0.57;0.43;;;9.70;95.60;;;;;;5060102;28;20508;-55
2022/02/11 06:42:55;;;;;;;0.60;0.60;;;9.60;95.30;;;;;;5060436;28;20021;-55
2022/02/11 06:45:22;;;;;;;6.47;1.95;;;9.60;95.40;;;;;;5056139;28;20102;-55
2022/02/11 06:47:48;;;;;;;1.00;0.98;;;9.60;95.20;;;;;;5062359;28;20405;-55
2022/02/11 06:50:14;;;;;;;0.60;0.60;;;9.60;95.10;;;;;;5061441;28;20036;-55
2022/02/11 06:52:39;;;;;;;0.63;0.63;;;9.60;95.10;;;;;;5056685;28;20210;-55
2022/02/11 06:55:06;;;;;;;0.68;0.68;;;9.60;95.10;;;;;;5061863;28;20028;-55
2022/02/11 06:57:31;;;;;;;0.75;0.75;;;9.60;95.20;;;;;;5061485;28;20070;-55
2022/02/11 06:59:57;;;;;;;0.88;0.88;;;9.60;95.00;;;;;;5058131;28;20033;-55
2022/02/11 07:02:24;;;;;;;6.28;0.85;;;9.60;95.00;;;;;;5056138;28;20021;-55
2022/02/11 07:04:50;;;;;;;0.95;0.90;;;9.60;95.00;;;;;;5058172;28;20041;-55
2022/02/11 07:07:15;;;;;;;1.63;1.00;;;9.60;95.10;;;;;;5062502;28;20143;-55
2022/02/11 07:09:41;;;;;;;0.82;0.77;;;9.60;95.10;;;;;;5059966;28;20039;-55
2022/02/11 07:12:07;;;;;;;1.35;0.98;;;9.60;95.00;;;;;;5057154;28;20115;-55
2022/02/11 07:14:33;;;;;;;1.63;1.20;;;9.60;95.10;;;;;;5065263;28;20025;-55
2022/02/11 07:16:59;;;;;;;1.33;1.20;;;9.60;95.10;;;;;;5072254;28;20031;-55
2022/02/11 07:19:24;;;;;;;5.78;1.20;;;9.60;95.10;;;;;;5068554;28;20028;-55
2022/02/11 07:21:50;;;;;;;5.75;1.50;;;9.60;95.00;;;;;;5069253;28;20345;-55
2022/02/11 07:24:16;;;;;;;1.65;1.40;;;9.60;95.10;;;;;;5069740;28;20024;-55
2022/02/11 07:26:41;;;;;;;4.38;1.50;;;9.60;95.10;;;;;;5070866;28;20714;-55
2022/02/11 07:29:07;;;;;;;2.28;1.77;;;9.60;95.00;;;;;;5069408;28;20070;-55
2022/02/11 07:31:33;;;;;;;1.75;1.48;;;9.60;95.00;;;;;;5050533;28;20446;-55
2022/02/11 07:33:58;;;;;;;7.10;2.08;;;9.60;95.00;;;;;;5059601;28;20045;-55
2022/02/11 07:36:24;;;;;;;3.72;1.95;;;9.60;95.10;;;;;;5058441;28;20104;-55
2022/02/11 07:38:50;;;;;;;4.45;2.30;;;9.60;95.00;;;;;;5059035;28;20025;-55
2022/02/11 07:41:17;;;;;;;2.30;1.67;;;9.60;94.90;;;;;;5059755;28;20123;-55
2022/02/11 07:43:45;;;;;;;4.20;1.65;;;9.60;95.00;;;;;;5061279;28;20362;-55
2022/02/11 07:46:11;;;;;;;1.92;1.35;;;9.60;94.90;;;;;;5054464;28;20033;-55
2022/02/11 07:48:36;;;;;;;5.03;1.95;;;9.60;94.90;;;;;;5059827;28;20033;-54
2022/02/11 07:51:02;;;;;;;2.72;1.70;;;9.60;95.00;;;;;;5061214;28;20114;-55
2022/02/11 07:53:28;;;;;;;6.63;2.22;;;9.60;94.90;;;;;;5059702;28;20022;-55
2022/02/11 07:55:54;;;;;;;4.40;1.85;;;9.60;94.90;;;;;;5055720;28;20120;-55
2022/02/11 07:58:23;;;;;;;6.25;2.10;;;9.60;94.90;;;;;;5059090;28;20022;-55
2022/02/11 08:00:49;;;;;;;4.22;1.95;;;9.60;94.90;;;;;;5055173;28;20029;-55
2022/02/11 08:03:15;;;;;;;4.80;2.20;;;9.60;95.20;;;;;;5058223;28;20139;-55
2022/02/11 08:05:42;;;;;;;3.85;1.80;;;9.60;94.90;;;;;;5054629;28;20037;-55
2022/02/11 08:08:08;;;;;;;6.38;1.63;;;9.60;94.90;;;;;;5061449;28;20036;-55
2022/02/11 08:10:33;;;;;;;2.00;1.60;;;9.60;94.90;;;;;;5056243;28;20037;-55
2022/02/11 08:12:59;;;;;;;1.52;1.40;;;9.60;94.90;;;;;;5059663;28;20400;-55
2022/02/11 08:15:24;;;;;;;3.05;1.90;;;9.60;94.80;;;;;;5058877;28;20585;-55
2022/02/11 08:17:50;;;;;;;5.03;1.88;;;9.60;94.80;;;;;;5059126;28;20500;-55
2022/02/11 08:20:16;;;;;;;2.25;1.33;;;9.60;94.90;;;;;;5060613;28;20465;-55
2022/02/11 08:22:41;;;;;;;2.22;1.40;;;9.60;94.80;;;;;;5055163;28;20070;-55
2022/02/11 08:25:07;;;;;;;3.03;1.42;;;9.60;94.90;;;;;;5056055;28;20029;-55
2022/02/11 08:27:33;;;;;;;7.93;1.70;;;9.60;94.90;;;;;;5061270;28;20044;-55
2022/02/11 08:29:59;;;;;;;3.38;1.58;;;9.60;94.90;;;;;;5058809;28;20121;-55
2022/02/11 08:32:25;;;;;;;3.42;1.83;;;9.60;94.80;;;;;;5053321;28;20112;-55
2022/02/11 08:34:50;;;;;;;5.40;2.42;;;9.60;94.70;;;;;;5054831;28;20037;-55
2022/02/11 08:37:16;;;;;;;4.28;1.75;;;9.60;94.90;;;;;;5060430;28;20024;-55
2022/02/11 08:39:42;;;;;;;3.15;1.52;;;9.60;94.80;;;;;;5059636;28;20024;-55
2022/02/11 08:42:08;;;;;;;4.88;1.27;;;9.60;94.70;;;;;;5055116;28;20048;-55
2022/02/11 08:44:34;;;;;;;2.40;1.70;;;9.60;94.80;;;;;;5063742;28;20052;-55
2022/02/11 08:47:01;;;;;;;3.45;1.83;;;9.60;94.80;;;;;;5060254;28;20059;-55
2022/02/11 08:49:27;;;;;;;5.72;1.70;;;9.60;94.80;;;;;;5062749;28;20055;-55
2022/02/11 08:51:53;;;;;;;3.92;1.30;;;9.60;94.80;;;;;;5059631;28;20041;-55
2022/02/11 08:54:19;;;;;;;3.10;1.25;;;9.60;94.70;;;;;;5062391;28;20021;-55
2022/02/11 08:56:45;;;;;;;6.60;1.92;;;9.60;94.70;;;;;;5063280;28;20523;-55
2022/02/11 08:59:11;;;;;;;3.17;1.60;;;9.60;94.70;;;;;;5063008;28;20456;-55
2022/02/11 09:01:36;;;;;;;4.85;1.63;;;9.60;94.80;;;;;;5058657;28;20109;-54
2022/02/11 09:04:02;;;;;;;4.28;1.27;;;9.60;94.90;;;;;;5063181;28;20029;-54
2022/02/11 09:06:27;;;;;;;6.28;1.42;;;9.60;94.90;;;;;;5060676;28;20350;-54
2022/02/11 09:08:53;;;;;;;3.08;1.55;;;9.60;94.90;;;;;;5064581;28;20456;-54
2022/02/11 09:11:22;;;;;;;11.27;1.73;;;9.60;95.00;;;;;;5059833;28;20037;-54
2022/02/11 09:13:49;;;;;;;8.00;1.75;;;9.70;95.10;;;;;;5061840;28;20078;-55
2022/02/11 09:16:15;;;;;;;2.75;1.52;;;9.70;95.20;;;;;;5058400;28;20453;-54
2022/02/11 09:18:41;;;;;;;4.38;1.40;;;9.70;95.20;;;;;;5060939;28;20317;-54
2022/02/11 09:21:07;;;;;;;2.20;1.40;;;9.70;95.20;;;;;;5059773;28;20355;-54
2022/02/11 09:23:33;;;;;;;1.25;0.88;;;9.70;95.30;;;;;;5061721;28;20106;-54
2022/02/11 09:25:59;;;;;;;4.63;1.38;;;9.70;95.10;;;;;;5063521;28;20039;-54
2022/02/11 09:28:25;;;;;;;6.47;1.90;;;9.70;95.10;;;;;;5063006;28;20028;-54
2022/02/11 09:30:50;;;;;;;3.97;1.95;;;9.70;95.10;;;;;;5061191;28;20036;-54
2022/02/11 09:33:16;;;;;;;2.63;1.40;;;9.70;95.20;;;;;;5059648;28;20107;-54
2022/02/11 09:35:42;;;;;;;4.63;1.73;;;9.70;95.10;;;;;;5063423;28;20109;-54
2022/02/11 09:38:09;;;;;;;4.53;1.50;;;9.80;95.10;;;;;;5061465;28;20032;-54
2022/02/11 09:40:39;;;;;;;6.40;1.85;;;9.80;95.20;;;;;;5062843;28;20029;-54
2022/02/11 09:43:09;;;;;;;2.15;1.00;;;9.80;95.20;;;;;;5057419;28;20048;-54
2022/02/11 09:45:35;;;;;;;3.40;1.60;;;9.90;95.50;;;;;;5062872;28;20024;-54
2022/02/11 09:48:03;;;;;;;2.40;1.20;;;9.90;95.40;;;;;;5064687;28;20778;-54
2022/02/11 09:50:29;;;;;;;1.45;1.08;;;9.90;95.60;;;;;;5062890;28;20028;-54
2022/02/11 09:52:55;;;;;;;3.97;1.35;;;9.90;95.60;;;;;;5063711;28;20075;-54
2022/02/11 09:55:32;;;;;;;4.18;1.80;;;9.90;95.50;;;;;;5064039;28;20024;-54
2022/02/11 09:58:03;;;;;;;3.78;1.08;;;9.90;95.40;;;;;;5059985;28;20027;-54
2022/02/11 10:00:29;;;;;;;1.73;1.02;;;9.90;95.60;;;;;;5067022;28;20036;-54
2022/02/11 10:02:59;;;;;;;6.78;2.20;;;9.90;95.60;;;;;;5058890;28;20028;-54
2022/02/11 10:05:28;;;;;;;1.35;1.05;;;9.90;95.60;;;;;;5062593;28;20458;-55
2022/02/11 10:07:55;;;;;;;4.10;1.27;;;10.00;95.60;;;;;;5065140;28;20048;-54
2022/02/11 10:10:42;;;;;;;4.32;1.27;;;10.00;95.50;;;;;;5067260;28;20123;-55
2022/02/11 10:13:19;;;;;;;7.50;1.42;;;10.00;95.80;;;;;;5062798;28;20466;-54
2022/02/11 10:15:54;;;;;;;5.55;1.50;;;10.00;95.80;;;;;;5066381;28;20461;-54
2022/02/11 10:18:25;;;;;;;4.10;1.60;;;10.00;96.00;;;;;;5056584;28;20028;-54
2022/02/11 10:20:56;;;;;;;0.73;0.70;;;10.00;96.10;;;;;;5065504;28;20020;-55
2022/02/11 10:23:24;;;;;;;5.03;0.70;;;10.00;95.90;;;;;;5063386;28;20059;-54
2022/02/11 10:26:10;;;;;;;2.83;1.77;;;10.00;95.80;;;;;;5065763;28;20318;-55
2022/02/11 10:28:47;;;;;;;4.75;1.30;;;10.10;96.50;;;;;;5069420;28;20393;-54
2022/02/11 10:31:18;;;;;;;1.77;1.00;;;10.20;96.00;;;;;;5068487;28;20032;-54
2022/02/11 10:33:49;;;;;;;2.22;1.10;;;10.40;95.70;;;;;;5065726;28;20429;-54
2022/02/11 10:36:39;;;;;;;6.32;1.60;;;10.60;95.50;;;;;;5065416;28;20086;-54
2022/02/11 10:39:20;;;;;;;1.95;1.30;;;10.60;95.30;;;;;;5073858;28;20245;-54
2022/02/11 10:41:57;;;;;;;4.13;1.17;;;10.70;95.00;;;;;;5066876;28;20047;-54
2022/02/11 10:44:34;;;;;;;3.88;0.98;;;10.70;95.00;;;;;;5069447;28;20366;-55
2022/02/11 10:47:16;;;;;;;1.33;1.23;;;10.80;94.80;;;;;;5068733;28;20016;-54
2022/02/11 10:49:42;;;;;;;2.85;1.33;;;10.80;94.50;;;;;;5068841;28;20089;-54
2022/02/11 10:52:19;;;;;;;8.13;1.30;;;10.90;94.40;;;;;;5061549;28;20040;-54
2022/02/11 10:54:53;;;;;;;2.08;1.33;;;10.90;94.30;;;;;;5060535;28;20328;-54
2022/02/11 10:57:23;;;;;;;0.20;0.20;;;10.90;94.30;;;;;;5062344;28;20096;-54
2022/02/11 10:59:50;;;;;;;5.55;1.20;;;10.90;94.10;;;;;;5064558;28;20071;-54
2022/02/11 11:02:21;;;;;;;0.30;0.30;;;10.80;94.20;;;;;;5063787;28;20101;-54
2022/02/11 11:04:49;;;;;;;1.33;0.90;;;10.80;94.20;;;;;;5064972;28;20044;-55
2022/02/11 11:07:22;;;;;;;7.32;1.45;;;10.80;94.70;;;;;;5067483;28;20430;-55
2022/02/11 11:09:48;;;;;;;2.00;1.25;;;10.70;94.00;;;;;;5065501;28;20362;-55
2022/02/11 11:12:18;;;;;;;2.97;0.77;;;10.70;94.60;;;;;;5060496;28;20046;-54
2022/02/11 11:14:47;;;;;;;0.60;0.60;;;10.80;94.80;;;;;;5061995;28;20544;-55
2022/02/11 11:17:17;;;;;;;3.57;0.90;;;10.60;95.20;;;;;;5062688;28;20056;-54
2022/02/11 11:19:43;;;;;;;2.33;1.10;;;10.60;95.90;;;;;;5059090;28;20021;-54
2022/02/11 11:22:14;;;;;;;4.22;1.48;;;10.50;96.20;;;;;;5062382;28;20393;-54
2022/02/11 11:24:43;;;;;;;0.70;0.70;;;10.50;96.10;;;;;;5059809;28;20020;-54
2022/02/11 11:27:08;;;;;;;2.97;0.90;;;10.50;96.20;;;;;;5062347;28;20017;-54
2022/02/11 11:29:34;;;;;;;5.20;1.27;;;10.50;96.10;;;;;;5062415;28;20039;-54
2022/02/11 11:32:02;;;;;;;5.53;1.10;;;10.50;95.30;;;;;;5059496;28;20024;-54
2022/02/11 11:34:28;;;;;;;1.30;0.85;;;10.60;95.20;;;;;;5064632;28;20112;-54
2022/02/11 11:37:02;;;;;;;1.20;1.10;;;10.50;95.20;;;;;;5063254;28;20017;-54
2022/02/11 11:39:28;;;;;;;5.32;1.10;;;10.60;95.00;;;;;;5061208;28;20077;-54
2022/02/11 11:42:14;;;;;;;5.22;1.30;;;10.60;95.10;;;;;;5064833;28;20108;-54
2022/02/11 11:44:48;;;;;;;1.25;1.02;;;10.60;95.70;;;;;;5054087;28;20037;-54
2022/02/11 11:47:32;;;;;;;1.02;0.73;;;10.60;95.50;;;;;;5055905;28;20033;-54
2022/02/11 11:49:58;;;;;;;1.63;0.90;;;10.70;95.70;;;;;;5067320;28;20523;-54
2022/02/11 11:52:39;;;;;;;1.52;1.10;;;10.70;95.30;;;;;;5063199;28;20024;-54
2022/02/11 11:55:18;;;;;;;;;;;10.70;95.40;;;;;;5063111;28;20024;-54
2022/02/11 11:57:44;;;;;;;3.78;1.15;;;10.70;94.90;;;;;;5060777;28;19905;-54
2022/02/11 12:00:10;;;;;;;0.50;0.50;;;10.70;95.00;;;;;;5067961;28;20028;-54
2022/02/11 12:02:38;;;;;;;0.80;0.80;;;10.70;95.00;;;;;;5058049;28;20371;-54
2022/02/11 12:05:05;;;;;;;1.83;1.10;;;10.70;95.00;;;;;;5062092;28;20094;-54
2022/02/11 12:07:37;;;;;;;1.63;0.55;;;10.70;95.20;;;;;;5061094;28;20025;-54
2022/02/11 12:10:05;;;;;;;3.55;1.27;;;10.70;95.20;;;;;;5066369;28;20041;-54
2022/02/11 12:12:36;;;;;;;2.72;1.10;;;10.70;95.30;;;;;;5062595;28;20399;-54
2022/02/11 12:15:07;;;;;;;1.48;0.95;;;10.60;95.70;;;;;;5064015;28;20021;-54
2022/02/11 12:17:33;;;;;;;2.10;1.00;;;10.60;96.00;;;;;;5062776;28;20029;-54
2022/02/11 12:19:59;;;;;;;2.50;1.05;;;10.50;96.40;;;;;;5068246;28;20021;-54
2022/02/11 12:22:31;;;;;;;2.47;0.75;;;10.40;96.90;;;;;;5063613;28;20024;-54
2022/02/11 12:27:46;;;;;;;6.28;1.73;;;10.40;96.70;;;;;;5068582;28;20066;-55
2022/02/11 12:30:21;;;;;;;6.60;1.35;;;10.40;96.90;;;;;;5068407;28;20044;-55
2022/02/11 12:32:53;;;;;;;2.78;1.20;;;10.40;96.90;;;;;;5058324;28;20057;-55
2022/02/11 12:35:27;;;;;;;4.68;0.93;;;10.40;96.80;;;;;;5065153;28;20123;-55
2022/02/11 12:37:54;;;;;;;5.18;1.30;;;10.40;96.80;;;;;;5068789;28;20525;-54
2022/02/11 12:40:32;;;;;;;2.35;1.00;;;10.30;96.70;;;;;;5070140;28;20020;-54
2022/02/11 12:43:08;;;;;;;1.95;0.82;;;10.30;96.50;;;;;;5066059;28;20021;-55
2022/02/11 12:45:37;;;;;;;0.88;0.85;;;10.30;96.50;;;;;;5061701;28;20036;-55
2022/02/11 12:48:05;;;;;;;0.95;0.93;;;10.30;96.50;;;;;;5068504;28;20037;-55
2022/02/11 12:50:39;;;;;;;5.07;1.23;;;10.30;96.50;;;;;;5062004;28;20539;-55
2022/02/11 12:53:07;;;;;;;0.80;0.80;;;10.30;96.50;;;;;;5066596;28;20063;-55
2022/02/11 12:55:37;;;;;;;1.42;1.17;;;10.30;96.50;;;;;;5065668;28;20025;-54
2022/02/11 12:58:08;;;;;;;1.30;1.08;;;10.30;96.50;;;;;;5070583;28;20442;-55
2022/02/11 13:00:39;;;;;;;3.15;1.40;;;10.30;96.30;;;;;;5067548;28;20025;-55
2022/02/11 13:03:06;;;;;;;1.02;1.00;;;10.30;96.20;;;;;;5061560;28;20037;-55
2022/02/11 13:05:46;;;;;;;0.82;0.73;;;10.40;96.10;;;;;;5066593;28;20028;-54
2022/02/11 13:08:28;;;;;;;5.00;1.50;;;10.50;95.60;;;;;;5070035;28;20035;-54
2022/02/11 13:10:56;;;;;;;1.42;0.80;;;10.50;95.20;;;;;;5067908;28;20029;-54
2022/02/11 13:13:22;;;;;;;2.03;1.02;;;10.60;94.80;;;;;;5059410;28;20046;-54
2022/02/11 13:15:48;;;;;;;2.15;0.82;;;10.50;94.70;;;;;;5067931;28;20446;-54
2022/02/11 13:18:22;;;;;;;0.85;0.85;;;10.50;94.90;;;;;;5062854;28;20021;-54
2022/02/11 13:20:51;;;;;;;2.30;1.10;;;10.50;94.90;;;;;;5057938;28;20036;-55
2022/02/11 13:23:23;;;;;;;5.17;1.20;;;10.50;94.70;;;;;;5061063;28;20025;-55
2022/02/11 13:25:50;;;;;;;3.22;1.67;;;10.60;94.30;;;;;;5068123;28;20275;-55
2022/02/11 13:28:19;;;;;;;6.30;0.98;;;10.70;94.50;;;;;;5066035;28;20024;-55
2022/02/11 13:30:47;;;;;;;4.70;1.20;;;10.60;94.40;;;;;;5064313;28;20029;-55
2022/02/11 13:33:22;;;;;;;1.67;1.10;;;10.60;94.50;;;;;;5068002;28;20041;-55
2022/02/11 13:35:49;;;;;;;2.92;1.00;;;10.60;94.30;;;;;;5062936;28;20029;-54
2022/02/11 13:38:32;;;;;;;1.83;1.13;;;10.60;94.60;;;;;;5065593;28;20027;-54
2022/02/11 13:41:00;;;;;;;3.47;1.45;;;10.60;94.80;;;;;;5062866;28;20021;-55
2022/02/11 13:43:44;;;;;;;5.68;1.00;;;10.60;94.70;;;;;;5067023;28;20025;-55
2022/02/11 13:46:09;;;;;;;2.45;1.17;;;10.70;94.00;;;;;;5068644;28;20106;-55
2022/02/11 13:48:55;;;;;;;2.13;0.80;;;10.70;94.40;;;;;;5062197;28;20107;-55
2022/02/11 13:51:22;;;;;;;3.20;1.27;;;10.70;94.50;;;;;;5062761;28;20032;-55
2022/02/11 13:53:52;;;;;;;0.90;0.80;;;10.70;94.70;;;;;;5065284;28;20028;-55
2022/02/11 13:56:37;;;;;;;2.58;1.17;;;10.70;94.40;;;;;;5069456;28;20069;-55
2022/02/11 13:59:11;;;;;;;8.63;1.67;;;10.70;94.40;;;;;;5063612;28;20024;-55
2022/02/11 14:01:39;;;;;;;2.65;1.20;;;10.80;94.40;;;;;;5065830;28;20079;-55
2022/02/11 14:04:09;;;;;;;3.42;0.90;;;10.80;94.40;;;;;;5062533;28;20025;-55
2022/02/11 14:06:46;;;;;;;3.30;0.90;;;10.80;94.10;;;;;;5068010;28;20013;-55
2022/02/11 14:09:37;;;;;;;2.20;0.90;;;10.80;93.70;;;;;;5064022;28;20035;-56
2022/02/11 14:12:28;;;;;;;1.45;1.00;;;10.90;93.60;;;;;;5068474;28;20174;-55
2022/02/11 14:15:02;;;;;;;2.70;1.20;;;10.90;93.20;;;;;;5067455;28;20025;-56
2022/02/11 14:17:29;;;;;;;1.77;1.20;;;10.90;94.00;;;;;;5065911;28;20350;-56
2022/02/11 14:19:55;;;;;;;1.38;0.85;;;10.80;95.00;;;;;;5060110;28;20048;-55
2022/02/11 14:22:21;;;;;;;1.20;1.00;;;10.70;94.40;;;;;;5067034;28;20117;-56
2022/02/11 14:24:47;;;;;;;5.38;1.40;;;10.70;95.10;;;;;;5066292;28;20021;-55
2022/02/11 14:27:13;;;;;;;1.40;1.10;;;10.70;95.40;;;;;;5064626;28;20040;-56
2022/02/11 14:29:39;;;;;;;4.22;1.25;;;10.60;95.60;;;;;;5059980;28;20040;-55
2022/02/11 14:32:05;;;;;;;3.10;1.38;;;10.60;95.60;;;;;;5066007;28;20038;-56
2022/02/11 14:34:31;;;;;;;3.38;1.40;;;10.60;95.80;;;;;;5064297;28;20037;-56
2022/02/11 14:36:56;;;;;;;2.42;1.02;;;10.50;95.90;;;;;;5061662;28;20021;-56
2022/02/11 14:39:22;;;;;;;1.38;0.88;;;10.50;95.70;;;;;;5066850;28;20025;-55
2022/02/11 14:41:55;;;;;;;2.63;1.20;;;10.50;95.80;;;;;;5063109;28;20082;-56
2022/02/11 14:44:25;;;;;;;2.13;1.10;;;10.50;95.60;;;;;;5065502;28;20034;-56
2022/02/11 14:46:53;;;;;;;4.18;1.02;;;10.40;95.50;;;;;;5060528;28;20048;-56
2022/02/11 14:49:20;;;;;;;2.33;1.00;;;10.40;95.50;;;;;;5065362;28;20039;-56
2022/02/11 14:51:49;;;;;;;1.92;0.93;;;10.40;95.50;;;;;;5060365;28;20037;-56
2022/02/11 14:54:16;;;;;;;1.40;1.10;;;10.40;95.50;;;;;;5064929;28;20048;-56
2022/02/11 14:56:43;;;;;;;5.13;1.63;;;10.40;95.50;;;;;;5059851;28;20033;-56
2022/02/11 14:59:09;;;;;;;2.58;1.05;;;10.40;95.40;;;;;;5055306;28;20029;-56
2022/02/11 15:01:36;;;;;;;3.45;1.42;;;10.40;95.30;;;;;;5061408;28;20025;-56
2022/02/11 15:04:03;;;;;;;1.73;1.08;;;10.40;95.20;;;;;;5067608;28;20074;-56
2022/02/11 15:06:29;;;;;;;2.13;0.90;;;10.40;95.10;;;;;;5063384;28;20024;-57
2022/02/11 15:08:54;;;;;;;4.43;1.15;;;10.40;94.30;;;;;;5062971;28;20021;-53
2022/02/11 15:11:20;;;;;;;1.17;0.90;;;10.20;93.20;;;;;;5061515;28;20074;-53
2022/02/11 15:13:45;;;;;;;3.92;0.90;;;10.20;94.10;;;;;;5064052;28;20028;-54
2022/02/11 15:16:11;;;;;;;1.50;0.95;;;10.20;94.10;;;;;;5064804;28;20089;-54
2022/02/11 15:18:38;;;;;;;1.48;0.98;;;10.20;93.80;;;;;;5060812;28;20082;-53
2022/02/11 15:21:06;;;;;;;8.77;1.00;;;10.20;93.60;;;;;;5060753;28;20024;-53
2022/02/11 15:23:34;;;;;;;0.75;0.75;;;10.20;93.50;;;;;;5064583;28;20064;-53
2022/02/11 15:26:03;;;;;;;3.60;0.90;;;10.20;93.40;;;;;;5061816;28;20098;-53
2022/02/11 15:28:29;;;;;;;1.33;1.10;;;10.30;93.40;;;;;;5062023;28;20024;-53
2022/02/11 15:30:55;;;;;;;2.72;1.30;;;10.20;93.30;;;;;;5054662;28;20470;-53
2022/02/11 15:33:21;;;;;;;2.30;1.10;;;10.20;93.30;;;;;;5052072;28;20061;-53
2022/02/11 15:35:47;;;;;;;1.25;1.10;;;10.20;93.40;;;;;;5059482;28;20032;-53
2022/02/11 15:38:12;;;;;;;5.40;1.98;;;10.20;93.40;;;;;;5064805;28;20109;-53
2022/02/11 15:40:38;;;;;;;1.85;1.15;;;10.20;93.40;;;;;;5063210;28;20446;-53
2022/02/11 15:43:04;;;;;;;2.25;1.00;;;10.20;93.40;;;;;;5061367;28;20020;-54
2022/02/11 15:45:30;;;;;;;4.30;0.82;;;10.20;93.50;;;;;;5065794;28;20028;-53
2022/02/11 15:47:56;;;;;;;0.95;0.93;;;10.20;93.40;;;;;;5062464;28;20397;-53
2022/02/11 15:50:21;;;;;;;2.88;0.82;;;10.20;93.50;;;;;;5060494;28;20028;-54
2022/02/11 15:52:48;;;;;;;1.67;1.00;;;10.20;93.50;;;;;;5061084;28;20021;-54
2022/02/11 15:55:15;;;;;;;1.10;0.93;;;10.20;93.40;;;;;;5061050;28;20029;-53
2022/02/11 15:57:42;;;;;;;1.52;0.63;;;10.20;93.50;;;;;;5061267;28;20073;-54
2022/02/11 16:00:09;;;;;;;1.42;0.95;;;10.10;93.50;;;;;;5069321;28;20030;-53
2022/02/11 16:02:35;;;;;;;2.08;0.80;;;10.10;93.60;;;;;;5059499;28;20224;-54
2022/02/11 16:05:01;;;;;;;1.08;0.98;;;10.10;93.50;;;;;;5059021;28;20115;-54
2022/02/11 16:07:30;;;;;;;4.15;0.88;;;10.10;93.50;;;;;;5061724;28;20029;-53
2022/02/11 16:09:55;;;;;;;2.05;1.38;;;10.10;93.50;;;;;;5066283;28;20049;-53
2022/02/11 16:12:21;;;;;;;1.60;1.23;;;10.10;93.50;;;;;;5064394;28;20036;-53
2022/02/11 16:14:47;;;;;;;3.55;1.17;;;10.10;93.50;;;;;;5056625;28;20028;-53
2022/02/11 16:17:13;;;;;;;3.78;0.90;;;10.10;93.50;;;;;;5055208;28;20103;-53
2022/02/11 16:19:39;;;;;;;4.53;1.35;;;10.10;93.50;;;;;;5064008;28;20581;-53
2022/02/11 16:22:05;;;;;;;3.80;1.10;;;10.00;93.50;;;;;;5066023;28;20387;-53
2022/02/11 16:24:32;;;;;;;3.58;1.40;;;10.00;93.50;;;;;;5070835;28;20032;-53
2022/02/11 16:26:58;;;;;;;3.08;1.17;;;10.00;93.50;;;;;;5067949;28;20024;-53
2022/02/11 16:29:24;;;;;;;1.83;0.90;;;10.00;93.60;;;;;;5068371;28;20115;-53
2022/02/11 16:31:49;;;;;;;1.60;1.10;;;10.00;93.60;;;;;;5059005;28;20083;-53
2022/02/11 16:34:19;;;;;;;1.30;0.95;;;10.00;93.60;;;;;;5065623;28;20026;-53
2022/02/11 16:36:45;;;;;;;2.38;0.93;;;10.00;93.60;;;;;;5057234;28;20025;-53
2022/02/11 16:39:15;;;;;;;4.15;1.38;;;10.00;93.60;;;;;;5059878;28;20048;-53
2022/02/11 16:41:40;;;;;;;1.45;0.98;;;10.00;93.60;;;;;;5057194;28;20111;-53
2022/02/11 16:44:06;;;;;;;4.32;1.10;;;10.00;93.60;;;;;;5063584;28;20124;-53
2022/02/11 16:46:34;;;;;;;3.25;1.17;;;10.00;93.70;;;;;;5064867;28;20017;-53
2022/02/11 16:49:08;;;;;;;1.23;0.98;;;9.90;93.60;;;;;;5059783;28;20029;-53
2022/02/11 16:51:34;;;;;;;5.32;1.13;;;9.90;93.60;;;;;;5063567;28;20071;-53
2022/02/11 16:54:00;;;;;;;4.32;1.17;;;9.90;93.50;;;;;;5069368;28;20066;-53